sensor_id;sensor_type;location;lat;lon;timestamp;P1;durP1;ratioP1;P2;durP2;ratioP2
18338;SDS011;9295;44.484;11.240;2023-02-11T00:01:21;59.75;;;26.63;;
18338;SDS011;9295;44.484;11.240;2023-02-11T00:03:53;57.25;;;26.52;;
18338;SDS011;9295;44.484;11.240;2023-02-11T00:06:22;59.10;;;26.88;;
18338;SDS011;9295;44.484;11.240;2023-02-11T00:08:51;56.65;;;25.75;;
18338;SDS011;9295;44.484;11.240;2023-02-11T00:11:20;57.70;;;25.27;;
18338;SDS011;9295;44.484;11.240;2023-02-11T00:13:51;58.00;;;27.85;;
18338;SDS011;9295;44.484;11.240;2023-02-11T00:16:19;52.67;;;26.95;;
18338;SDS011;9295;44.484;11.240;2023-02-11T00:18:48;54.28;;;26.58;;
18338;SDS011;9295;44.484;11.240;2023-02-11T00:21:21;51.40;;;24.65;;
18338;SDS011;9295;44.484;11.240;2023-02-11T00:23:51;58.70;;;26.35;;
18338;SDS011;9295;44.484;11.240;2023-02-11T00:26:21;63.05;;;24.83;;
18338;SDS011;9295;44.484;11.240;2023-02-11T00:28:52;54.58;;;24.92;;
18338;SDS011;9295;44.484;11.240;2023-02-11T00:31:22;55.75;;;25.60;;
18338;SDS011;9295;44.484;11.240;2023-02-11T00:33:51;52.30;;;25.55;;
18338;SDS011;9295;44.484;11.240;2023-02-11T00:36:22;55.65;;;25.05;;
18338;SDS011;9295;44.484;11.240;2023-02-11T00:38:53;54.60;;;26.23;;
18338;SDS011;9295;44.484;11.240;2023-02-11T00:41:23;47.13;;;23.67;;
18338;SDS011;9295;44.484;11.240;2023-02-11T00:43:52;54.22;;;25.40;;
18338;SDS011;9295;44.484;11.240;2023-02-11T00:46:21;55.10;;;25.95;;
18338;SDS011;9295;44.484;11.240;2023-02-11T00:48:50;54.10;;;25.90;;
18338;SDS011;9295;44.484;11.240;2023-02-11T00:51:22;54.63;;;26.27;;
18338;SDS011;9295;44.484;11.240;2023-02-11T00:53:51;57.45;;;25.65;;
18338;SDS011;9295;44.484;11.240;2023-02-11T00:56:19;50.47;;;24.45;;
18338;SDS011;9295;44.484;11.240;2023-02-11T00:58:48;55.08;;;25.40;;
18338;SDS011;9295;44.484;11.240;2023-02-11T01:01:17;49.30;;;24.73;;
18338;SDS011;9295;44.484;11.240;2023-02-11T01:03:45;47.25;;;24.08;;
18338;SDS011;9295;44.484;11.240;2023-02-11T01:06:14;52.75;;;25.15;;
18338;SDS011;9295;44.484;11.240;2023-02-11T01:08:44;53.50;;;24.47;;
18338;SDS011;9295;44.484;11.240;2023-02-11T01:11:14;50.10;;;23.77;;
18338;SDS011;9295;44.484;11.240;2023-02-11T01:13:44;53.20;;;24.95;;
18338;SDS011;9295;44.484;11.240;2023-02-11T01:16:14;61.75;;;25.50;;
18338;SDS011;9295;44.484;11.240;2023-02-11T01:18:44;53.75;;;26.55;;
18338;SDS011;9295;44.484;11.240;2023-02-11T01:21:15;53.80;;;26.05;;
18338;SDS011;9295;44.484;11.240;2023-02-11T01:23:45;56.85;;;25.52;;
18338;SDS011;9295;44.484;11.240;2023-02-11T01:26:14;51.78;;;26.10;;
18338;SDS011;9295;44.484;11.240;2023-02-11T01:28:42;58.65;;;27.40;;
18338;SDS011;9295;44.484;11.240;2023-02-11T01:31:11;49.03;;;23.95;;
18338;SDS011;9295;44.484;11.240;2023-02-11T01:33:40;54.08;;;27.38;;
18338;SDS011;9295;44.484;11.240;2023-02-11T01:36:09;59.42;;;25.88;;
18338;SDS011;9295;44.484;11.240;2023-02-11T01:38:38;47.60;;;25.13;;
18338;SDS011;9295;44.484;11.240;2023-02-11T01:41:09;55.20;;;23.57;;
18338;SDS011;9295;44.484;11.240;2023-02-11T01:43:40;51.47;;;24.13;;
18338;SDS011;9295;44.484;11.240;2023-02-11T01:46:17;47.67;;;24.08;;
18338;SDS011;9295;44.484;11.240;2023-02-11T01:48:54;50.58;;;23.50;;
18338;SDS011;9295;44.484;11.240;2023-02-11T01:51:25;46.40;;;21.25;;
18338;SDS011;9295;44.484;11.240;2023-02-11T01:53:58;48.85;;;23.08;;
18338;SDS011;9295;44.484;11.240;2023-02-11T01:56:48;48.22;;;22.73;;
18338;SDS011;9295;44.484;11.240;2023-02-11T01:59:37;45.53;;;21.77;;
18338;SDS011;9295;44.484;11.240;2023-02-11T02:02:11;46.85;;;23.00;;
18338;SDS011;9295;44.484;11.240;2023-02-11T02:04:45;45.58;;;22.45;;
18338;SDS011;9295;44.484;11.240;2023-02-11T02:07:18;51.47;;;21.08;;
18338;SDS011;9295;44.484;11.240;2023-02-11T02:09:57;42.85;;;20.40;;
18338;SDS011;9295;44.484;11.240;2023-02-11T02:12:31;44.00;;;21.98;;
18338;SDS011;9295;44.484;11.240;2023-02-11T02:15:22;42.22;;;20.85;;
18338;SDS011;9295;44.484;11.240;2023-02-11T02:17:56;45.38;;;22.23;;
18338;SDS011;9295;44.484;11.240;2023-02-11T02:23:39;46.72;;;21.20;;
18338;SDS011;9295;44.484;11.240;2023-02-11T02:26:28;44.28;;;21.50;;
18338;SDS011;9295;44.484;11.240;2023-02-11T02:29:28;49.78;;;19.85;;
18338;SDS011;9295;44.484;11.240;2023-02-11T02:32:31;43.40;;;21.75;;
18338;SDS011;9295;44.484;11.240;2023-02-11T02:35:18;48.63;;;23.38;;
18338;SDS011;9295;44.484;11.240;2023-02-11T02:37:56;49.25;;;23.48;;
18338;SDS011;9295;44.484;11.240;2023-02-11T02:40:31;45.35;;;23.20;;
18338;SDS011;9295;44.484;11.240;2023-02-11T02:43:03;45.08;;;21.73;;
18338;SDS011;9295;44.484;11.240;2023-02-11T02:45:33;41.33;;;20.20;;
18338;SDS011;9295;44.484;11.240;2023-02-11T02:48:03;44.35;;;21.05;;
18338;SDS011;9295;44.484;11.240;2023-02-11T02:50:33;49.88;;;23.42;;
18338;SDS011;9295;44.484;11.240;2023-02-11T02:53:10;46.63;;;22.98;;
18338;SDS011;9295;44.484;11.240;2023-02-11T02:55:53;46.10;;;21.50;;
18338;SDS011;9295;44.484;11.240;2023-02-11T02:58:42;42.85;;;21.42;;
18338;SDS011;9295;44.484;11.240;2023-02-11T03:01:24;47.45;;;21.40;;
18338;SDS011;9295;44.484;11.240;2023-02-11T03:04:02;40.63;;;20.40;;
18338;SDS011;9295;44.484;11.240;2023-02-11T03:06:42;42.42;;;20.40;;
18338;SDS011;9295;44.484;11.240;2023-02-11T03:09:15;47.92;;;21.40;;
18338;SDS011;9295;44.484;11.240;2023-02-11T03:11:48;38.25;;;18.00;;
18338;SDS011;9295;44.484;11.240;2023-02-11T03:14:17;45.75;;;21.00;;
18338;SDS011;9295;44.484;11.240;2023-02-11T03:16:47;45.90;;;20.63;;
18338;SDS011;9295;44.484;11.240;2023-02-11T03:19:20;43.15;;;20.50;;
18338;SDS011;9295;44.484;11.240;2023-02-11T03:21:50;44.50;;;21.70;;
18338;SDS011;9295;44.484;11.240;2023-02-11T03:24:23;40.95;;;18.98;;
18338;SDS011;9295;44.484;11.240;2023-02-11T03:26:56;43.45;;;19.65;;
18338;SDS011;9295;44.484;11.240;2023-02-11T03:29:30;41.15;;;19.23;;
18338;SDS011;9295;44.484;11.240;2023-02-11T03:32:03;47.22;;;20.23;;
18338;SDS011;9295;44.484;11.240;2023-02-11T03:34:41;41.00;;;18.25;;
18338;SDS011;9295;44.484;11.240;2023-02-11T03:37:15;44.17;;;20.50;;
18338;SDS011;9295;44.484;11.240;2023-02-11T03:39:49;38.40;;;19.23;;
18338;SDS011;9295;44.484;11.240;2023-02-11T03:42:21;40.25;;;18.98;;
18338;SDS011;9295;44.484;11.240;2023-02-11T03:44:58;39.92;;;20.02;;
18338;SDS011;9295;44.484;11.240;2023-02-11T03:47:31;40.53;;;18.98;;
18338;SDS011;9295;44.484;11.240;2023-02-11T03:50:07;42.83;;;19.05;;
18338;SDS011;9295;44.484;11.240;2023-02-11T03:52:37;41.60;;;19.13;;
18338;SDS011;9295;44.484;11.240;2023-02-11T03:55:06;42.70;;;19.70;;
18338;SDS011;9295;44.484;11.240;2023-02-11T03:57:38;36.28;;;17.25;;
18338;SDS011;9295;44.484;11.240;2023-02-11T04:00:08;40.17;;;17.02;;
18338;SDS011;9295;44.484;11.240;2023-02-11T04:02:38;38.15;;;18.83;;
18338;SDS011;9295;44.484;11.240;2023-02-11T04:05:09;37.03;;;16.75;;
18338;SDS011;9295;44.484;11.240;2023-02-11T04:07:39;38.25;;;17.48;;
18338;SDS011;9295;44.484;11.240;2023-02-11T04:10:10;39.83;;;18.50;;
18338;SDS011;9295;44.484;11.240;2023-02-11T04:12:39;43.65;;;19.45;;
18338;SDS011;9295;44.484;11.240;2023-02-11T04:15:07;43.83;;;18.30;;
18338;SDS011;9295;44.484;11.240;2023-02-11T04:17:36;37.10;;;17.60;;
18338;SDS011;9295;44.484;11.240;2023-02-11T04:20:05;45.83;;;19.52;;
18338;SDS011;9295;44.484;11.240;2023-02-11T04:22:36;38.53;;;18.00;;
18338;SDS011;9295;44.484;11.240;2023-02-11T04:25:05;41.15;;;18.00;;
18338;SDS011;9295;44.484;11.240;2023-02-11T04:27:37;53.47;;;21.23;;
18338;SDS011;9295;44.484;11.240;2023-02-11T04:30:07;45.78;;;20.40;;
18338;SDS011;9295;44.484;11.240;2023-02-11T04:32:39;41.10;;;18.15;;
18338;SDS011;9295;44.484;11.240;2023-02-11T04:35:07;41.20;;;19.05;;
18338;SDS011;9295;44.484;11.240;2023-02-11T04:37:37;38.90;;;18.75;;
18338;SDS011;9295;44.484;11.240;2023-02-11T04:40:09;37.78;;;17.52;;
18338;SDS011;9295;44.484;11.240;2023-02-11T04:42:38;37.85;;;19.05;;
18338;SDS011;9295;44.484;11.240;2023-02-11T04:45:07;32.65;;;17.00;;
18338;SDS011;9295;44.484;11.240;2023-02-11T04:47:35;37.85;;;18.38;;
18338;SDS011;9295;44.484;11.240;2023-02-11T04:50:04;40.60;;;16.42;;
18338;SDS011;9295;44.484;11.240;2023-02-11T04:52:33;38.47;;;18.17;;
18338;SDS011;9295;44.484;11.240;2023-02-11T04:55:04;40.15;;;18.40;;
18338;SDS011;9295;44.484;11.240;2023-02-11T04:57:33;34.45;;;16.25;;
18338;SDS011;9295;44.484;11.240;2023-02-11T05:00:02;36.97;;;16.73;;
18338;SDS011;9295;44.484;11.240;2023-02-11T05:02:31;37.97;;;18.77;;
18338;SDS011;9295;44.484;11.240;2023-02-11T05:04:59;34.92;;;17.17;;
18338;SDS011;9295;44.484;11.240;2023-02-11T05:07:28;40.15;;;18.30;;
18338;SDS011;9295;44.484;11.240;2023-02-11T05:09:56;36.70;;;16.85;;
18338;SDS011;9295;44.484;11.240;2023-02-11T05:12:26;37.70;;;17.77;;
18338;SDS011;9295;44.484;11.240;2023-02-11T05:14:55;38.25;;;18.08;;
18338;SDS011;9295;44.484;11.240;2023-02-11T05:17:23;36.17;;;17.13;;
18338;SDS011;9295;44.484;11.240;2023-02-11T05:19:52;37.00;;;16.75;;
18338;SDS011;9295;44.484;11.240;2023-02-11T05:22:20;38.55;;;16.80;;
18338;SDS011;9295;44.484;11.240;2023-02-11T05:24:49;38.10;;;17.60;;
18338;SDS011;9295;44.484;11.240;2023-02-11T05:27:18;37.53;;;17.02;;
18338;SDS011;9295;44.484;11.240;2023-02-11T05:29:48;36.90;;;17.77;;
18338;SDS011;9295;44.484;11.240;2023-02-11T05:32:16;35.22;;;15.38;;
18338;SDS011;9295;44.484;11.240;2023-02-11T05:34:45;36.95;;;16.38;;
18338;SDS011;9295;44.484;11.240;2023-02-11T05:37:13;35.78;;;16.10;;
18338;SDS011;9295;44.484;11.240;2023-02-11T05:39:42;38.92;;;16.75;;
18338;SDS011;9295;44.484;11.240;2023-02-11T05:42:10;41.38;;;18.02;;
18338;SDS011;9295;44.484;11.240;2023-02-11T05:44:40;33.80;;;17.08;;
18338;SDS011;9295;44.484;11.240;2023-02-11T05:47:09;36.05;;;15.32;;
18338;SDS011;9295;44.484;11.240;2023-02-11T05:49:38;34.17;;;14.80;;
18338;SDS011;9295;44.484;11.240;2023-02-11T05:52:07;32.25;;;14.82;;
18338;SDS011;9295;44.484;11.240;2023-02-11T05:54:35;32.53;;;16.33;;
18338;SDS011;9295;44.484;11.240;2023-02-11T05:57:04;29.50;;;14.80;;
18338;SDS011;9295;44.484;11.240;2023-02-11T05:59:32;31.38;;;15.52;;
18338;SDS011;9295;44.484;11.240;2023-02-11T06:02:01;35.65;;;15.90;;
18338;SDS011;9295;44.484;11.240;2023-02-11T06:04:31;29.35;;;14.60;;
18338;SDS011;9295;44.484;11.240;2023-02-11T06:06:59;30.65;;;15.45;;
18338;SDS011;9295;44.484;11.240;2023-02-11T06:09:28;30.35;;;14.98;;
18338;SDS011;9295;44.484;11.240;2023-02-11T06:11:56;36.88;;;16.27;;
18338;SDS011;9295;44.484;11.240;2023-02-11T06:14:25;37.35;;;16.73;;
18338;SDS011;9295;44.484;11.240;2023-02-11T06:16:53;37.80;;;17.42;;
18338;SDS011;9295;44.484;11.240;2023-02-11T06:19:22;41.45;;;18.35;;
18338;SDS011;9295;44.484;11.240;2023-02-11T06:21:52;38.70;;;18.48;;
18338;SDS011;9295;44.484;11.240;2023-02-11T06:24:20;32.88;;;16.95;;
18338;SDS011;9295;44.484;11.240;2023-02-11T06:27:09;34.17;;;15.95;;
18338;SDS011;9295;44.484;11.240;2023-02-11T06:29:38;33.75;;;15.00;;
18338;SDS011;9295;44.484;11.240;2023-02-11T06:32:06;29.38;;;15.90;;
18338;SDS011;9295;44.484;11.240;2023-02-11T06:34:55;39.70;;;16.33;;
18338;SDS011;9295;44.484;11.240;2023-02-11T06:37:25;36.53;;;16.05;;
18338;SDS011;9295;44.484;11.240;2023-02-11T06:39:53;34.13;;;15.90;;
18338;SDS011;9295;44.484;11.240;2023-02-11T06:42:22;33.05;;;15.57;;
18338;SDS011;9295;44.484;11.240;2023-02-11T06:44:50;34.67;;;15.55;;
18338;SDS011;9295;44.484;11.240;2023-02-11T06:47:19;35.72;;;17.27;;
18338;SDS011;9295;44.484;11.240;2023-02-11T06:49:48;34.80;;;15.18;;
18338;SDS011;9295;44.484;11.240;2023-02-11T06:52:16;34.65;;;15.52;;
18338;SDS011;9295;44.484;11.240;2023-02-11T06:54:46;35.63;;;16.80;;
18338;SDS011;9295;44.484;11.240;2023-02-11T06:57:15;29.38;;;14.57;;
18338;SDS011;9295;44.484;11.240;2023-02-11T06:59:43;30.45;;;14.52;;
18338;SDS011;9295;44.484;11.240;2023-02-11T07:02:12;29.02;;;14.52;;
18338;SDS011;9295;44.484;11.240;2023-02-11T07:04:40;32.10;;;15.15;;
18338;SDS011;9295;44.484;11.240;2023-02-11T07:07:09;30.20;;;15.35;;
18338;SDS011;9295;44.484;11.240;2023-02-11T07:09:38;28.63;;;13.77;;
18338;SDS011;9295;44.484;11.240;2023-02-11T07:12:09;32.25;;;14.93;;
18338;SDS011;9295;44.484;11.240;2023-02-11T07:14:38;34.85;;;16.98;;
18338;SDS011;9295;44.484;11.240;2023-02-11T07:17:07;31.90;;;15.13;;
18338;SDS011;9295;44.484;11.240;2023-02-11T07:19:35;29.57;;;14.47;;
18338;SDS011;9295;44.484;11.240;2023-02-11T07:22:04;25.13;;;14.97;;
18338;SDS011;9295;44.484;11.240;2023-02-11T07:24:32;30.27;;;16.87;;
18338;SDS011;9295;44.484;11.240;2023-02-11T07:27:01;31.30;;;18.30;;
18338;SDS011;9295;44.484;11.240;2023-02-11T07:29:31;35.27;;;20.07;;
18338;SDS011;9295;44.484;11.240;2023-02-11T07:32:00;34.27;;;20.10;;
18338;SDS011;9295;44.484;11.240;2023-02-11T07:34:28;36.57;;;21.27;;
18338;SDS011;9295;44.484;11.240;2023-02-11T07:36:57;37.43;;;22.40;;
18338;SDS011;9295;44.484;11.240;2023-02-11T07:39:26;34.40;;;20.57;;
18338;SDS011;9295;44.484;11.240;2023-02-11T07:41:55;35.23;;;21.70;;
18338;SDS011;9295;44.484;11.240;2023-02-11T07:44:24;33.67;;;19.90;;
18338;SDS011;9295;44.484;11.240;2023-02-11T07:46:54;30.80;;;19.40;;
18338;SDS011;9295;44.484;11.240;2023-02-11T07:49:23;34.80;;;21.33;;
18338;SDS011;9295;44.484;11.240;2023-02-11T07:51:51;34.23;;;21.00;;
18338;SDS011;9295;44.484;11.240;2023-02-11T07:54:20;33.73;;;20.30;;
18338;SDS011;9295;44.484;11.240;2023-02-11T07:56:48;35.20;;;22.77;;
18338;SDS011;9295;44.484;11.240;2023-02-11T07:59:17;36.73;;;22.70;;
18338;SDS011;9295;44.484;11.240;2023-02-11T08:01:45;39.47;;;22.17;;
18338;SDS011;9295;44.484;11.240;2023-02-11T08:04:18;31.90;;;21.87;;
18338;SDS011;9295;44.484;11.240;2023-02-11T08:06:46;31.63;;;21.23;;
18338;SDS011;9295;44.484;11.240;2023-02-11T08:09:15;32.80;;;22.93;;
18338;SDS011;9295;44.484;11.240;2023-02-11T08:11:43;32.80;;;21.20;;
18338;SDS011;9295;44.484;11.240;2023-02-11T08:14:12;32.10;;;21.80;;
18338;SDS011;9295;44.484;11.240;2023-02-11T08:16:41;32.83;;;21.83;;
18338;SDS011;9295;44.484;11.240;2023-02-11T08:19:10;34.80;;;22.73;;
18338;SDS011;9295;44.484;11.240;2023-02-11T08:21:42;34.83;;;21.87;;
18338;SDS011;9295;44.484;11.240;2023-02-11T08:24:10;42.03;;;22.80;;
18338;SDS011;9295;44.484;11.240;2023-02-11T08:26:39;33.97;;;22.90;;
18338;SDS011;9295;44.484;11.240;2023-02-11T08:29:09;38.97;;;23.30;;
18338;SDS011;9295;44.484;11.240;2023-02-11T08:31:41;37.30;;;22.13;;
18338;SDS011;9295;44.484;11.240;2023-02-11T08:34:11;42.20;;;24.23;;
18338;SDS011;9295;44.484;11.240;2023-02-11T08:36:46;37.33;;;22.70;;
18338;SDS011;9295;44.484;11.240;2023-02-11T08:39:15;36.10;;;20.27;;
18338;SDS011;9295;44.484;11.240;2023-02-11T08:41:47;36.70;;;21.00;;
18338;SDS011;9295;44.484;11.240;2023-02-11T08:44:16;36.30;;;19.00;;
18338;SDS011;9295;44.484;11.240;2023-02-11T08:46:46;39.33;;;19.63;;
18338;SDS011;9295;44.484;11.240;2023-02-11T08:49:15;46.13;;;20.03;;
18338;SDS011;9295;44.484;11.240;2023-02-11T08:51:45;33.07;;;19.93;;
18338;SDS011;9295;44.484;11.240;2023-02-11T08:54:14;39.97;;;21.10;;
18338;SDS011;9295;44.484;11.240;2023-02-11T08:56:43;38.10;;;20.67;;
18338;SDS011;9295;44.484;11.240;2023-02-11T08:59:12;38.43;;;20.43;;
18338;SDS011;9295;44.484;11.240;2023-02-11T09:01:43;37.30;;;19.20;;
18338;SDS011;9295;44.484;11.240;2023-02-11T09:04:13;38.97;;;19.97;;
18338;SDS011;9295;44.484;11.240;2023-02-11T09:06:41;43.63;;;23.37;;
18338;SDS011;9295;44.484;11.240;2023-02-11T09:09:12;43.70;;;21.90;;
18338;SDS011;9295;44.484;11.240;2023-02-11T09:11:42;48.23;;;21.57;;
18338;SDS011;9295;44.484;11.240;2023-02-11T09:14:14;36.33;;;20.03;;
18338;SDS011;9295;44.484;11.240;2023-02-11T09:16:44;37.60;;;20.63;;
18338;SDS011;9295;44.484;11.240;2023-02-11T09:19:14;44.17;;;22.33;;
18338;SDS011;9295;44.484;11.240;2023-02-11T09:21:42;38.23;;;21.20;;
18338;SDS011;9295;44.484;11.240;2023-02-11T09:24:12;43.20;;;22.47;;
18338;SDS011;9295;44.484;11.240;2023-02-11T09:26:41;47.47;;;24.40;;
18338;SDS011;9295;44.484;11.240;2023-02-11T09:29:10;40.90;;;22.13;;
18338;SDS011;9295;44.484;11.240;2023-02-11T09:31:39;36.03;;;20.23;;
18338;SDS011;9295;44.484;11.240;2023-02-11T09:34:09;40.20;;;21.37;;
18338;SDS011;9295;44.484;11.240;2023-02-11T09:36:38;45.57;;;22.60;;
18338;SDS011;9295;44.484;11.240;2023-02-11T09:39:08;43.90;;;22.40;;
18338;SDS011;9295;44.484;11.240;2023-02-11T09:41:45;42.60;;;21.33;;
18338;SDS011;9295;44.484;11.240;2023-02-11T09:44:26;36.10;;;20.80;;
18338;SDS011;9295;44.484;11.240;2023-02-11T09:46:57;44.10;;;21.57;;
18338;SDS011;9295;44.484;11.240;2023-02-11T09:49:30;47.70;;;21.07;;
18338;SDS011;9295;44.484;11.240;2023-02-11T09:52:04;61.13;;;29.20;;
18338;SDS011;9295;44.484;11.240;2023-02-11T09:54:36;55.47;;;25.73;;
18338;SDS011;9295;44.484;11.240;2023-02-11T09:57:14;44.60;;;23.50;;
18338;SDS011;9295;44.484;11.240;2023-02-11T09:59:54;45.37;;;22.27;;
18338;SDS011;9295;44.484;11.240;2023-02-11T10:02:25;43.43;;;23.20;;
18338;SDS011;9295;44.484;11.240;2023-02-11T10:07:50;46.30;;;21.40;;
18338;SDS011;9295;44.484;11.240;2023-02-11T10:10:31;39.20;;;21.77;;
18338;SDS011;9295;44.484;11.240;2023-02-11T10:13:22;40.20;;;20.73;;
18338;SDS011;9295;44.484;11.240;2023-02-11T10:16:01;40.43;;;20.00;;
18338;SDS011;9295;44.484;11.240;2023-02-11T10:18:39;39.57;;;21.30;;
18338;SDS011;9295;44.484;11.240;2023-02-11T10:21:18;45.30;;;21.83;;
18338;SDS011;9295;44.484;11.240;2023-02-11T10:23:55;41.83;;;21.23;;
18338;SDS011;9295;44.484;11.240;2023-02-11T10:26:28;38.07;;;21.33;;
18338;SDS011;9295;44.484;11.240;2023-02-11T10:29:00;35.77;;;19.63;;
18338;SDS011;9295;44.484;11.240;2023-02-11T10:31:39;41.33;;;20.40;;
18338;SDS011;9295;44.484;11.240;2023-02-11T10:34:10;35.13;;;19.70;;
18338;SDS011;9295;44.484;11.240;2023-02-11T10:36:40;39.70;;;21.90;;
18338;SDS011;9295;44.484;11.240;2023-02-11T10:39:12;37.07;;;21.10;;
18338;SDS011;9295;44.484;11.240;2023-02-11T10:41:43;38.07;;;19.77;;
18338;SDS011;9295;44.484;11.240;2023-02-11T10:44:18;35.00;;;18.60;;
18338;SDS011;9295;44.484;11.240;2023-02-11T10:46:51;35.80;;;20.20;;
18338;SDS011;9295;44.484;11.240;2023-02-11T10:49:34;36.33;;;19.60;;
18338;SDS011;9295;44.484;11.240;2023-02-11T10:52:12;40.10;;;21.37;;
18338;SDS011;9295;44.484;11.240;2023-02-11T10:54:57;34.30;;;18.70;;
18338;SDS011;9295;44.484;11.240;2023-02-11T10:57:35;36.87;;;19.27;;
18338;SDS011;9295;44.484;11.240;2023-02-11T11:00:18;37.70;;;19.57;;
18338;SDS011;9295;44.484;11.240;2023-02-11T11:02:58;39.90;;;20.20;;
18338;SDS011;9295;44.484;11.240;2023-02-11T11:05:29;33.77;;;18.97;;
18338;SDS011;9295;44.484;11.240;2023-02-11T11:08:00;36.97;;;21.30;;
18338;SDS011;9295;44.484;11.240;2023-02-11T11:10:36;47.23;;;24.17;;
18338;SDS011;9295;44.484;11.240;2023-02-11T11:13:23;39.97;;;21.93;;
18338;SDS011;9295;44.484;11.240;2023-02-11T11:16:08;38.40;;;20.90;;
18338;SDS011;9295;44.484;11.240;2023-02-11T11:18:48;33.47;;;19.40;;
18338;SDS011;9295;44.484;11.240;2023-02-11T11:21:19;39.50;;;19.53;;
18338;SDS011;9295;44.484;11.240;2023-02-11T11:23:53;34.77;;;19.53;;
18338;SDS011;9295;44.484;11.240;2023-02-11T11:26:24;39.07;;;20.10;;
18338;SDS011;9295;44.484;11.240;2023-02-11T11:28:55;37.00;;;20.57;;
18338;SDS011;9295;44.484;11.240;2023-02-11T11:31:29;42.00;;;21.20;;
18338;SDS011;9295;44.484;11.240;2023-02-11T11:34:02;35.20;;;20.27;;
18338;SDS011;9295;44.484;11.240;2023-02-11T11:36:45;38.73;;;20.77;;
18338;SDS011;9295;44.484;11.240;2023-02-11T11:39:17;36.27;;;19.67;;
18338;SDS011;9295;44.484;11.240;2023-02-11T11:41:50;40.67;;;21.97;;
18338;SDS011;9295;44.484;11.240;2023-02-11T11:44:22;49.73;;;23.50;;
18338;SDS011;9295;44.484;11.240;2023-02-11T11:47:17;38.37;;;21.90;;
18338;SDS011;9295;44.484;11.240;2023-02-11T11:52:55;43.83;;;22.63;;
18338;SDS011;9295;44.484;11.240;2023-02-11T11:55:28;38.33;;;21.90;;
18338;SDS011;9295;44.484;11.240;2023-02-11T11:58:01;42.83;;;22.30;;
18338;SDS011;9295;44.484;11.240;2023-02-11T12:06:30;35.33;;;20.70;;
18338;SDS011;9295;44.484;11.240;2023-02-11T12:09:08;39.10;;;21.53;;
18338;SDS011;9295;44.484;11.240;2023-02-11T12:11:56;39.30;;;22.10;;
18338;SDS011;9295;44.484;11.240;2023-02-11T12:14:47;36.37;;;20.60;;
18338;SDS011;9295;44.484;11.240;2023-02-11T12:17:25;45.53;;;21.33;;
18338;SDS011;9295;44.484;11.240;2023-02-11T12:20:13;41.97;;;21.67;;
18338;SDS011;9295;44.484;11.240;2023-02-11T12:22:52;33.03;;;19.47;;
18338;SDS011;9295;44.484;11.240;2023-02-11T12:25:29;39.87;;;20.30;;
18338;SDS011;9295;44.484;11.240;2023-02-11T12:28:08;37.80;;;20.07;;
18338;SDS011;9295;44.484;11.240;2023-02-11T12:30:53;40.30;;;21.60;;
18338;SDS011;9295;44.484;11.240;2023-02-11T12:33:43;38.20;;;19.77;;
18338;SDS011;9295;44.484;11.240;2023-02-11T12:36:42;35.90;;;20.03;;
18338;SDS011;9295;44.484;11.240;2023-02-11T12:39:24;41.20;;;20.87;;
18338;SDS011;9295;44.484;11.240;2023-02-11T12:42:08;40.00;;;21.27;;
18338;SDS011;9295;44.484;11.240;2023-02-11T12:45:07;39.63;;;19.67;;
18338;SDS011;9295;44.484;11.240;2023-02-11T12:47:51;37.80;;;21.30;;
18338;SDS011;9295;44.484;11.240;2023-02-11T12:50:33;37.37;;;20.40;;
18338;SDS011;9295;44.484;11.240;2023-02-11T12:53:15;35.80;;;20.10;;
18338;SDS011;9295;44.484;11.240;2023-02-11T12:55:57;33.73;;;19.60;;
18338;SDS011;9295;44.484;11.240;2023-02-11T12:58:30;37.13;;;20.03;;
18338;SDS011;9295;44.484;11.240;2023-02-11T13:01:13;36.60;;;20.93;;
18338;SDS011;9295;44.484;11.240;2023-02-11T13:03:46;40.80;;;20.63;;
18338;SDS011;9295;44.484;11.240;2023-02-11T13:06:19;37.23;;;20.10;;
18338;SDS011;9295;44.484;11.240;2023-02-11T13:08:53;35.80;;;20.37;;
18338;SDS011;9295;44.484;11.240;2023-02-11T13:11:28;50.20;;;21.83;;
18338;SDS011;9295;44.484;11.240;2023-02-11T13:14:06;41.83;;;21.07;;
18338;SDS011;9295;44.484;11.240;2023-02-11T13:16:43;36.47;;;19.97;;
18338;SDS011;9295;44.484;11.240;2023-02-11T13:19:16;37.13;;;20.10;;
18338;SDS011;9295;44.484;11.240;2023-02-11T13:21:59;36.10;;;18.40;;
18338;SDS011;9295;44.484;11.240;2023-02-11T13:24:36;38.17;;;17.70;;
18338;SDS011;9295;44.484;11.240;2023-02-11T13:27:16;30.67;;;17.40;;
18338;SDS011;9295;44.484;11.240;2023-02-11T13:33:17;37.50;;;19.10;;
18338;SDS011;9295;44.484;11.240;2023-02-11T13:35:48;33.20;;;18.90;;
18338;SDS011;9295;44.484;11.240;2023-02-11T13:38:38;29.80;;;18.83;;
18338;SDS011;9295;44.484;11.240;2023-02-11T13:41:15;38.13;;;19.43;;
18338;SDS011;9295;44.484;11.240;2023-02-11T13:43:55;35.57;;;20.10;;
18338;SDS011;9295;44.484;11.240;2023-02-11T13:46:26;32.57;;;19.80;;
18338;SDS011;9295;44.484;11.240;2023-02-11T13:49:14;34.70;;;19.10;;
18338;SDS011;9295;44.484;11.240;2023-02-11T13:51:46;37.60;;;19.87;;
18338;SDS011;9295;44.484;11.240;2023-02-11T13:54:21;33.47;;;19.90;;
18338;SDS011;9295;44.484;11.240;2023-02-11T13:59:49;38.50;;;20.73;;
18338;SDS011;9295;44.484;11.240;2023-02-11T14:02:29;34.70;;;20.10;;
18338;SDS011;9295;44.484;11.240;2023-02-11T14:05:21;35.67;;;20.23;;
18338;SDS011;9295;44.484;11.240;2023-02-11T14:08:14;33.73;;;19.50;;
18338;SDS011;9295;44.484;11.240;2023-02-11T14:11:06;37.50;;;19.90;;
18338;SDS011;9295;44.484;11.240;2023-02-11T14:19:47;32.60;;;20.50;;
18338;SDS011;9295;44.484;11.240;2023-02-11T14:22:16;38.40;;;22.30;;
18338;SDS011;9295;44.484;11.240;2023-02-11T14:24:50;40.73;;;22.60;;
18338;SDS011;9295;44.484;11.240;2023-02-11T14:33:22;40.97;;;22.70;;
18338;SDS011;9295;44.484;11.240;2023-02-11T14:36:04;33.80;;;20.70;;
18338;SDS011;9295;44.484;11.240;2023-02-11T14:38:42;40.00;;;21.90;;
18338;SDS011;9295;44.484;11.240;2023-02-11T14:41:21;34.17;;;20.67;;
18338;SDS011;9295;44.484;11.240;2023-02-11T14:43:52;38.53;;;22.03;;
18338;SDS011;9295;44.484;11.240;2023-02-11T14:46:22;33.73;;;20.00;;
18338;SDS011;9295;44.484;11.240;2023-02-11T14:48:56;35.67;;;19.97;;
18338;SDS011;9295;44.484;11.240;2023-02-11T14:51:27;37.37;;;22.10;;
18338;SDS011;9295;44.484;11.240;2023-02-11T14:54:00;35.87;;;19.97;;
18338;SDS011;9295;44.484;11.240;2023-02-11T14:56:38;46.70;;;23.13;;
18338;SDS011;9295;44.484;11.240;2023-02-11T14:59:12;40.23;;;22.27;;
18338;SDS011;9295;44.484;11.240;2023-02-11T15:01:45;39.00;;;21.13;;
18338;SDS011;9295;44.484;11.240;2023-02-11T15:04:25;37.73;;;19.87;;
18338;SDS011;9295;44.484;11.240;2023-02-11T15:06:55;38.17;;;21.00;;
18338;SDS011;9295;44.484;11.240;2023-02-11T15:09:26;36.90;;;21.90;;
18338;SDS011;9295;44.484;11.240;2023-02-11T15:12:00;34.97;;;20.73;;
18338;SDS011;9295;44.484;11.240;2023-02-11T15:14:30;42.20;;;22.67;;
18338;SDS011;9295;44.484;11.240;2023-02-11T15:17:01;41.07;;;21.80;;
18338;SDS011;9295;44.484;11.240;2023-02-11T15:19:35;41.20;;;21.60;;
18338;SDS011;9295;44.484;11.240;2023-02-11T15:22:13;41.23;;;21.97;;
18338;SDS011;9295;44.484;11.240;2023-02-11T15:24:46;36.73;;;20.27;;
18338;SDS011;9295;44.484;11.240;2023-02-11T15:27:44;38.60;;;22.57;;
18338;SDS011;9295;44.484;11.240;2023-02-11T15:30:22;36.60;;;21.13;;